createdAt,value
2022-08-28T00:00:31.590Z,100324.42
2022-08-28T00:01:31.909Z,100326.89
2022-08-28T00:02:32.288Z,100327.8
2022-08-28T00:03:32.546Z,100328.23
2022-08-28T00:04:33.130Z,100327.91
2022-08-28T00:05:34.087Z,100323
2022-08-28T00:06:34.182Z,100322.65
2022-08-28T00:07:34.808Z,100321.16
2022-08-28T00:08:34.819Z,100322.95
2022-08-28T00:09:35.348Z,100323.16
2022-08-28T00:10:36.166Z,100322.88
2022-08-28T00:11:36.063Z,100318.54
2022-08-28T00:12:37.408Z,100319.11
2022-08-28T00:13:36.899Z,100321.88
2022-08-28T00:14:37.521Z,100318.64
2022-08-28T00:15:38.341Z,100317.38
2022-08-28T00:16:38.663Z,100317.54
2022-08-28T00:17:39.281Z,100312.52
2022-08-28T00:18:39.384Z,100313.02
2022-08-28T00:19:39.609Z,100315.33
2022-08-28T00:20:40.847Z,100318.77
2022-08-28T00:21:40.637Z,100314.52
2022-08-28T00:22:41.667Z,100310.95
2022-08-28T00:23:42.896Z,100314.34
2022-08-28T00:24:41.986Z,100310.7
2022-08-28T00:25:42.296Z,100314.66
2022-08-28T00:26:42.827Z,100315.9
2022-08-28T00:27:43.334Z,100316.55
2022-08-28T00:28:43.645Z,100315.61
2022-08-28T00:29:44.263Z,100318.85
2022-08-28T00:30:47.562Z,100318.04
2022-08-28T00:31:46.434Z,100320.3
2022-08-28T00:32:46.539Z,100319.88
2022-08-28T00:33:48.280Z,100317.72
2022-08-28T00:34:47.487Z,100320.7
2022-08-28T00:35:49.329Z,100315.77
2022-08-28T00:36:48.317Z,100315.97
2022-08-28T00:37:48.729Z,100311.86
2022-08-28T00:38:49.467Z,100307.5
2022-08-28T00:39:49.656Z,100308.51
2022-08-28T00:40:52.641Z,100306.69
2022-08-28T00:41:50.597Z,100303.77
2022-08-28T00:42:55.528Z,100301.22
2022-08-28T00:44:59.848Z,100302.81
2022-08-28T00:46:02.142Z,100303.28
2022-08-28T00:47:00.769Z,100301.59
2022-08-28T00:48:01.800Z,100310.23
2022-08-28T00:49:01.808Z,100312.33
2022-08-28T00:50:03.239Z,100308.61
2022-08-28T00:51:03.658Z,100303.08
2022-08-28T00:52:06.648Z,100302.88
2022-08-28T00:53:04.384Z,100303.2
2022-08-28T00:54:07.873Z,100302.2
2022-08-28T00:55:10.348Z,100300.55
2022-08-28T00:56:13.088Z,100299.47
2022-08-28T00:57:15.489Z,100297.55
2022-08-28T00:58:13.935Z,100293.95
2022-08-28T00:59:16.316Z,100295.11
2022-08-28T01:00:19.280Z,100296.91
2022-08-28T01:01:17.111Z,100296.75
2022-08-28T01:02:17.352Z,100296.83
2022-08-28T01:03:17.869Z,100295.24
2022-08-28T01:04:20.347Z,100292.58
2022-08-28T01:05:19.428Z,100290.66
2022-08-28T01:06:19.427Z,100291.31
2022-08-28T01:07:20.051Z,100290.53
2022-08-28T01:08:20.160Z,100289.77
2022-08-28T01:09:25.908Z,100294.39
2022-08-28T01:10:26.412Z,100290.73
2022-08-28T01:11:24.378Z,100292.27
2022-08-28T01:12:29.726Z,100288.81
2022-08-28T01:13:28.789Z,100293.3
2022-08-28T01:14:29.036Z,100292.91
2022-08-28T01:15:33.720Z,100294.52
2022-08-28T01:16:34.169Z,100296.62
2022-08-28T01:17:34.655Z,100293.78
2022-08-28T01:18:34.040Z,100289.7
2022-08-28T01:19:41.523Z,100291.75
2022-08-28T01:20:36.919Z,100295.95
2022-08-28T01:24:46.275Z,100297.2
2022-08-28T01:25:44.959Z,100300.64
2022-08-28T01:26:45.061Z,100298.14
2022-08-28T01:27:45.670Z,100297.34
2022-08-28T01:28:46.303Z,100293.75
2022-08-28T01:29:47.966Z,100296.68
2022-08-28T01:30:48.814Z,100298.58
2022-08-28T01:31:47.236Z,100295.56
2022-08-28T01:32:52.056Z,100291.7
2022-08-28T01:33:49.613Z,100294.42
2022-08-28T01:34:50.022Z,100297.06
2022-08-28T01:35:50.543Z,100299.64
2022-08-28T01:36:50.855Z,100296.2
2022-08-28T01:37:52.608Z,100294.73
2022-08-28T01:38:57.834Z,100297.65
2022-08-28T01:39:55.456Z,100297.46
2022-08-28T01:40:57.533Z,100295.7
2022-08-28T01:41:56.519Z,100297.88
2022-08-28T01:43:05.647Z,100298.97
2022-08-28T01:43:58.274Z,100298.12
2022-08-28T01:44:58.591Z,100302.28
2022-08-28T01:46:02.241Z,100298.96
2022-08-28T01:47:00.033Z,100296.13
2022-08-28T01:48:00.238Z,100296.73
2022-08-28T01:49:00.966Z,100295.22
2022-08-28T01:50:01.129Z,100296.8
2022-08-28T01:51:02.727Z,100294.41
2022-08-28T01:52:03.422Z,100296.11
2022-08-28T01:53:04.277Z,100295.79
2022-08-28T01:54:03.047Z,100295.65
2022-08-28T01:55:08.174Z,100295.65
2022-08-28T01:56:11.158Z,100294.12
2022-08-28T01:57:08.704Z,100296.99
2022-08-28T01:58:09.718Z,100293.56
2022-08-28T01:59:11.174Z,100294.27
2022-08-28T02:00:11.380Z,100291.95
2022-08-28T02:01:11.055Z,100289.59
2022-08-28T02:02:10.401Z,100285.61
2022-08-28T02:03:10.700Z,100285.3
2022-08-28T02:04:11.714Z,100284.1
2022-08-28T02:05:11.644Z,100286.6
2022-08-28T02:06:11.939Z,100286.01
2022-08-28T02:07:11.655Z,100286.5
2022-08-28T02:08:12.097Z,100278.74
2022-08-28T02:09:14.389Z,100272.87
2022-08-28T02:10:12.272Z,100278.09
2022-08-28T02:11:13.101Z,100280.34
2022-08-28T02:12:12.897Z,100279.66
2022-08-28T02:13:13.533Z,100279.17
2022-08-28T02:14:13.628Z,100277.1
2022-08-28T02:15:13.538Z,100275.27
2022-08-28T02:16:14.024Z,100278.16
2022-08-28T02:17:13.957Z,100274.8
2022-08-28T02:18:15.011Z,100277.27
2022-08-28T02:19:14.487Z,100276.19
2022-08-28T02:20:14.799Z,100278.7
2022-08-28T02:21:15.009Z,100280.69
2022-08-28T02:22:15.179Z,100276.12
2022-08-28T02:23:16.750Z,100276.53
2022-08-28T02:24:15.850Z,100276.62
2022-08-28T02:25:15.951Z,100273.9
2022-08-28T02:26:16.279Z,100277.57
2022-08-28T02:27:16.473Z,100277.16
2022-08-28T02:28:16.704Z,100277.62
2022-08-28T02:29:16.897Z,100278.12
2022-08-28T02:30:17.318Z,100275.73
2022-08-28T02:31:17.594Z,100272.47
2022-08-28T02:32:17.523Z,100277.62
2022-08-28T02:33:17.953Z,100275.73
2022-08-28T02:34:18.471Z,100272.52
2022-08-28T02:35:19.198Z,100271.81
2022-08-28T02:36:18.686Z,100270.3
2022-08-28T02:37:19.013Z,100270.94
2022-08-28T02:38:19.002Z,100271.55
2022-08-28T02:39:19.219Z,100267.69
2022-08-28T02:40:21.559Z,100264.95
2022-08-28T02:41:19.848Z,100264.22
2022-08-28T02:42:20.162Z,100266.91
2022-08-28T02:43:20.173Z,100263.27
2022-08-28T02:44:20.471Z,100264.12
2022-08-28T02:45:21.099Z,100263.88
2022-08-28T02:46:21.047Z,100263.44
2022-08-28T02:47:21.334Z,100261.88
2022-08-28T02:48:21.665Z,100264.24
2022-08-28T02:49:21.957Z,100263.79
2022-08-28T02:50:22.460Z,100260.55
2022-08-28T02:51:22.170Z,100259.41
2022-08-28T02:52:22.482Z,100261.23
2022-08-28T02:53:22.683Z,100262.27
2022-08-28T02:54:22.793Z,100259.19
2022-08-28T02:55:23.523Z,100259.53
2022-08-28T02:56:23.320Z,100259.19
2022-08-28T02:57:23.646Z,100257.91
2022-08-28T02:58:23.953Z,100255.44
2022-08-28T02:59:24.473Z,100253.78
2022-08-28T03:00:25.799Z,100254.55
2022-08-28T03:01:24.755Z,100254.73
2022-08-28T03:02:25.722Z,100253.2
2022-08-28T03:03:25.215Z,100250.36
2022-08-28T03:04:25.527Z,100249.59
2022-08-28T03:05:25.438Z,100248.44
2022-08-28T03:06:25.947Z,100251.95
2022-08-28T03:07:26.596Z,100249.71
2022-08-28T03:08:27.206Z,100252.37
2022-08-28T03:09:26.580Z,100247.02
2022-08-28T03:10:26.694Z,100247.44
2022-08-28T03:11:27.208Z,100247.78
2022-08-28T03:12:27.417Z,100244.03
2022-08-28T03:13:27.585Z,100241.95
2022-08-28T03:14:27.738Z,100239.84
2022-08-28T03:15:27.848Z,100243.89
2022-08-28T03:16:28.161Z,100237.81
2022-08-28T03:17:28.372Z,100238.05
2022-08-28T03:18:28.997Z,100242.04
2022-08-28T03:19:28.800Z,100236.89
2022-08-28T03:20:29.220Z,100236.69
2022-08-28T03:21:29.325Z,100234.8
2022-08-28T03:22:29.431Z,100234.67
2022-08-28T03:23:30.082Z,100232.83
2022-08-28T03:24:29.976Z,100233.03
2022-08-28T03:25:30.178Z,100233.44
2022-08-28T03:26:30.488Z,100232.56
2022-08-28T03:27:30.688Z,100235.59
2022-08-28T03:28:32.749Z,100235.93
2022-08-28T03:29:31.527Z,100236.12
2022-08-28T03:30:31.577Z,100237.32
2022-08-28T03:31:31.647Z,100237.83
2022-08-28T03:32:31.853Z,100239.06
2022-08-28T03:33:32.886Z,100235.16
2022-08-28T03:34:32.490Z,100237.97
2022-08-28T03:35:32.591Z,100236.7
2022-08-28T03:36:33.213Z,100238.73
2022-08-28T03:37:33.317Z,100236.81
2022-08-28T03:38:33.325Z,100240.16
2022-08-28T03:39:33.433Z,100241.93
2022-08-28T03:40:33.855Z,100242.49
2022-08-28T03:41:34.069Z,100241.55
2022-08-28T03:42:34.179Z,100245.66
2022-08-28T03:43:34.391Z,100244.84
2022-08-28T03:44:37.270Z,100247.61
2022-08-28T03:45:34.953Z,100249.98
2022-08-28T03:46:35.329Z,100252.39
2022-08-28T03:47:39.325Z,100248.81
2022-08-28T03:48:37.691Z,100251.25
2022-08-28T03:49:36.950Z,100252.44
2022-08-28T03:50:40.161Z,100253.91
2022-08-28T03:51:38.018Z,100250.73
2022-08-28T03:52:39.159Z,100251.06
2022-08-28T03:53:38.543Z,100251.96
2022-08-28T03:54:38.754Z,100249.84
2022-08-28T03:55:40.508Z,100250.98
2022-08-28T03:56:41.122Z,100253.55
2022-08-28T03:57:39.703Z,100252.12
2022-08-28T03:58:40.429Z,100252.28
2022-08-28T03:59:39.818Z,100257.73
2022-08-28T04:00:40.237Z,100253.27
2022-08-28T04:01:40.540Z,100251.79
2022-08-28T04:02:41.799Z,100255.41
2022-08-28T04:03:40.831Z,100256.44
2022-08-28T04:04:41.192Z,100260.61
2022-08-28T04:05:42.828Z,100261.35
2022-08-28T04:06:41.607Z,100257.84
2022-08-28T04:07:41.918Z,100260.38
2022-08-28T04:08:42.332Z,100257.7
2022-08-28T04:09:42.448Z,100259.77
2022-08-28T04:10:43.696Z,100259
2022-08-28T04:11:42.967Z,100262.81
2022-08-28T04:12:43.103Z,100261.86
2022-08-28T04:13:43.399Z,100262.8
2022-08-28T04:14:43.891Z,100264.36
2022-08-28T04:15:43.820Z,100261.29
2022-08-28T04:16:44.222Z,100263.67
2022-08-28T04:17:44.615Z,100262.47
2022-08-28T04:18:45.291Z,100262.73
2022-08-28T04:19:45.190Z,100262.91
2022-08-28T04:20:46.472Z,100263.91
2022-08-28T04:21:45.292Z,100265.48
2022-08-28T04:22:45.393Z,100262.69
2022-08-28T04:23:46.138Z,100266.89
2022-08-28T04:24:45.919Z,100266.08
2022-08-28T04:25:46.120Z,100266.02
2022-08-28T04:26:46.543Z,100265.25
2022-08-28T04:27:46.550Z,100267.96
2022-08-28T04:28:48.096Z,100265.86
2022-08-28T04:29:46.975Z,100265.7
2022-08-28T04:30:47.499Z,100269.08
2022-08-28T04:31:47.542Z,100271.81
2022-08-28T04:32:47.913Z,100270.06
2022-08-28T04:33:48.022Z,100274.67
2022-08-28T04:34:48.237Z,100275.66
2022-08-28T04:35:48.546Z,100276.14
2022-08-28T04:36:50.606Z,100273.86
2022-08-28T04:37:48.976Z,100278.12
2022-08-28T04:38:49.289Z,100276.53
2022-08-28T04:39:49.407Z,100271.19
2022-08-28T04:40:49.613Z,100269.44
2022-08-28T04:41:50.039Z,100271.09
2022-08-28T04:42:51.158Z,100272.98
2022-08-28T04:43:50.446Z,100274.61
2022-08-28T04:44:50.783Z,100269.7
2022-08-28T04:45:51.031Z,100269.44
2022-08-28T04:46:51.383Z,100269.22
2022-08-28T04:47:51.292Z,100266.47
2022-08-28T04:48:51.708Z,100269.92
2022-08-28T04:49:52.121Z,100267.42
2022-08-28T04:50:52.182Z,100269.8
2022-08-28T04:51:52.544Z,100269.91
2022-08-28T04:52:52.753Z,100271.25
2022-08-28T04:53:52.859Z,100272.66
2022-08-28T04:54:53.176Z,100270.09
2022-08-28T04:55:55.274Z,100267.21
2022-08-28T04:56:53.634Z,100268.03
2022-08-28T04:57:53.919Z,100270.21
2022-08-28T04:58:54.227Z,100268.98
2022-08-28T04:59:54.307Z,100263.87
2022-08-28T05:00:54.794Z,100266.72
2022-08-28T05:01:54.895Z,100268.11
2022-08-28T05:02:55.091Z,100266.8
2022-08-28T05:03:57.229Z,100271.48
2022-08-28T05:04:55.595Z,100262.95
2022-08-28T05:05:55.709Z,100262.2
2022-08-28T05:06:56.020Z,100263.11
2022-08-28T05:07:56.450Z,100264.29
2022-08-28T05:08:57.274Z,100260.11
2022-08-28T05:09:57.575Z,100260.28
2022-08-28T05:10:57.081Z,100260.59
2022-08-28T05:12:01.281Z,100262.61
2022-08-28T05:12:58.218Z,100261.83
2022-08-28T05:13:58.627Z,100262.98
2022-08-28T05:14:58.744Z,100259.84
2022-08-28T05:15:59.020Z,100262.28
2022-08-28T05:16:59.270Z,100261.91
2022-08-28T05:17:59.680Z,100264.89
2022-08-28T05:19:03.376Z,100263.94
2022-08-28T05:20:00.335Z,100263.02
2022-08-28T05:21:00.627Z,100260.48
2022-08-28T05:22:00.838Z,100264.94
2022-08-28T05:23:01.043Z,100261.86
2022-08-28T05:24:01.360Z,100261.87
2022-08-28T05:25:01.688Z,100262.68
2022-08-28T05:26:01.778Z,100258.35
2022-08-28T05:27:02.206Z,100255.28
2022-08-28T05:28:02.721Z,100257.96
2022-08-28T05:29:03.127Z,100254.86
2022-08-28T05:30:02.928Z,100256.33
2022-08-28T05:31:09.874Z,100255.91
2022-08-28T05:32:07.050Z,100257.06
2022-08-28T05:33:08.276Z,100254.34
2022-08-28T05:34:07.563Z,100259.49
2022-08-28T05:35:07.899Z,100254.09
2022-08-28T05:36:08.710Z,100253.64
2022-08-28T05:37:08.196Z,100253.2
2022-08-28T05:38:09.011Z,100250.15
2022-08-28T05:39:11.204Z,100248.88
2022-08-28T05:40:09.708Z,100252.41
2022-08-28T05:41:09.251Z,100247.36
2022-08-28T05:42:09.464Z,100247.7
2022-08-28T05:43:09.881Z,100245.59
2022-08-28T05:44:11.622Z,100245.33
2022-08-28T05:45:10.733Z,100250.11
2022-08-28T05:46:10.698Z,100247.44
2022-08-28T05:47:10.839Z,100250.92
2022-08-28T05:48:11.371Z,100247.55
2022-08-28T05:49:11.248Z,100246.45
2022-08-28T05:50:12.178Z,100244.59
2022-08-28T05:51:12.911Z,100246.89
2022-08-28T05:52:12.098Z,100251.69
2022-08-28T05:53:13.128Z,100245.44
2022-08-28T05:54:13.340Z,100245.2
2022-08-28T05:55:13.549Z,100245.12
2022-08-28T05:56:15.080Z,100244.19
2022-08-28T05:57:13.966Z,100241.3
2022-08-28T05:58:14.485Z,100239.75
2022-08-28T05:59:14.598Z,100242.37
2022-08-28T06:00:15.118Z,100240.25
2022-08-28T06:01:19.237Z,100242.56
2022-08-28T06:02:16.274Z,100239.98
2022-08-28T06:03:16.357Z,100238.21
2022-08-28T06:04:19.314Z,100237.92
2022-08-28T06:05:17.429Z,100236.25
2022-08-28T06:06:17.328Z,100237.45
2022-08-28T06:07:16.999Z,100239.5
2022-08-28T06:08:17.221Z,100234.98
2022-08-28T06:09:18.551Z,100233.47
2022-08-28T06:10:18.044Z,100235.71
2022-08-28T06:11:21.230Z,100231.22
2022-08-28T06:12:21.328Z,100233.77
2022-08-28T06:13:21.549Z,100234.22
2022-08-28T06:14:21.753Z,100237.07
2022-08-28T06:15:21.972Z,100235.67
2022-08-28T06:16:22.252Z,100231.91
2022-08-28T06:17:23.732Z,100235.14
2022-08-28T06:18:22.917Z,100235.33
2022-08-28T06:19:23.842Z,100232.84
2022-08-28T06:20:22.825Z,100231.31
2022-08-28T06:21:23.239Z,100235.46
2022-08-28T06:22:23.260Z,100235.75
2022-08-28T06:23:24.039Z,100234.39
2022-08-28T06:24:24.283Z,100238.24
2022-08-28T06:25:23.680Z,100236.89
2022-08-28T06:26:23.889Z,100238.48
2022-08-28T06:27:24.407Z,100236.56
2022-08-28T06:28:25.539Z,100235.55
2022-08-28T06:29:24.951Z,100239.59
2022-08-28T06:30:24.638Z,100236.76
2022-08-28T06:31:26.427Z,100236.17
2022-08-28T06:32:25.343Z,100241.96
2022-08-28T06:33:25.161Z,100242.23
2022-08-28T06:34:26.302Z,100243.98
2022-08-28T06:35:25.688Z,100240.6
2022-08-28T06:36:27.344Z,100243.18
2022-08-28T06:37:26.105Z,100241.83
2022-08-28T06:38:26.834Z,100243.06
2022-08-28T06:39:26.838Z,100244.7
2022-08-28T06:40:26.793Z,100244.59
2022-08-28T06:41:27.268Z,100248.98
2022-08-28T06:42:26.961Z,100247.64
2022-08-28T06:43:28.297Z,100250.5
2022-08-28T06:44:27.388Z,100251.12
2022-08-28T06:45:27.592Z,100255.34
2022-08-28T06:46:27.858Z,100254.41
2022-08-28T06:47:27.807Z,100253.3
2022-08-28T06:48:28.638Z,100252.85
2022-08-28T06:49:28.340Z,100256.8
2022-08-28T06:50:28.341Z,100251.8
2022-08-28T06:51:28.658Z,100250.22
2022-08-28T06:52:28.761Z,100247
2022-08-28T06:53:30.398Z,100253.12
2022-08-28T06:54:29.391Z,100252.61
2022-08-28T06:55:29.499Z,100254.64
2022-08-28T06:56:29.718Z,100252.91
2022-08-28T06:57:29.839Z,100249.34
2022-08-28T06:58:29.927Z,100249.45
2022-08-28T06:59:30.249Z,100249.41
2022-08-28T07:00:30.571Z,100247.32
2022-08-28T07:01:32.290Z,100245.88
2022-08-28T07:02:30.817Z,100248.56
2022-08-28T07:03:30.999Z,100252.02
2022-08-28T07:04:31.520Z,100253.33
2022-08-28T07:05:32.349Z,100254
2022-08-28T07:06:32.961Z,100253.2
2022-08-28T07:07:32.760Z,100253.99
2022-08-28T07:08:32.252Z,100256.16
2022-08-28T07:09:32.367Z,100251.02
2022-08-28T07:10:32.479Z,100252.75
2022-08-28T07:11:34.221Z,100250.88
2022-08-28T07:12:32.910Z,100251.41
2022-08-28T07:13:33.972Z,100249.28
2022-08-28T07:14:33.215Z,100245.58
2022-08-28T07:15:33.456Z,100246.45
2022-08-28T07:16:35.787Z,100247.11
2022-08-28T07:17:33.847Z,100246.78
2022-08-28T07:18:34.076Z,100243.97
2022-08-28T07:19:34.286Z,100243.8
2022-08-28T07:20:34.479Z,100246.41
2022-08-28T07:21:38.146Z,100247.48
2022-08-28T07:22:36.338Z,100245.66
2022-08-28T07:23:37.261Z,100242.63
2022-08-28T07:24:36.760Z,100243.82
2022-08-28T07:25:42.414Z,100244.11
2022-08-28T07:26:39.949Z,100248.46
2022-08-28T07:27:39.642Z,100249.64
2022-08-28T07:28:39.966Z,100249.23
2022-08-28T07:29:40.079Z,100248.11
2022-08-28T07:30:40.208Z,100247.64
2022-08-28T07:31:41.631Z,100246.38
2022-08-28T07:32:40.822Z,100248.13
2022-08-28T07:33:41.427Z,100250.05
2022-08-28T07:34:41.017Z,100251.44
2022-08-28T07:35:43.287Z,100253.25
2022-08-28T07:36:42.169Z,100254.7
2022-08-28T07:37:41.872Z,100257.41
2022-08-28T07:38:41.991Z,100254.74
2022-08-28T07:39:42.277Z,100252.88
2022-08-28T07:40:42.405Z,100259.3
2022-08-28T07:41:43.069Z,100256.06
2022-08-28T07:42:42.828Z,100256.16
2022-08-28T07:43:43.040Z,100256.23
2022-08-28T07:44:43.031Z,100260.14
2022-08-28T07:45:43.613Z,100260.95
2022-08-28T07:46:43.978Z,100259.14
2022-08-28T07:47:43.976Z,100260.3
2022-08-28T07:48:43.980Z,100263.04
2022-08-28T07:49:44.817Z,100263.18
2022-08-28T07:50:44.494Z,100258.16
2022-08-28T07:51:46.917Z,100260.74
2022-08-28T07:52:44.931Z,100263.83
2022-08-28T07:53:45.037Z,100260.48
2022-08-28T07:54:45.358Z,100259.81
2022-08-28T07:55:45.571Z,100258.03
2022-08-28T07:56:46.601Z,100256.67
2022-08-28T07:57:46.098Z,100259.81
2022-08-28T07:58:46.410Z,100257.91
2022-08-28T07:59:46.302Z,100254.78
2022-08-28T08:00:46.719Z,100258.58
2022-08-28T08:01:47.700Z,100258.14
2022-08-28T08:02:47.045Z,100255.92
2022-08-28T08:03:47.329Z,100253.86
2022-08-28T08:04:47.479Z,100255.04
2022-08-28T08:05:54.547Z,100253.79
2022-08-28T08:06:57.221Z,100254.34
2022-08-28T08:07:55.170Z,100253.83
2022-08-28T08:08:55.184Z,100256.48
2022-08-28T08:09:55.497Z,100251.72
2022-08-28T08:10:56.718Z,100258.81
2022-08-28T08:11:56.112Z,100251.7
2022-08-28T08:12:56.263Z,100252.18
2022-08-28T08:13:56.339Z,100251.06
2022-08-28T08:14:56.447Z,100248.9
2022-08-28T08:16:04.578Z,100252.17
2022-08-28T08:17:02.398Z,100250.53
2022-08-28T08:18:01.890Z,100246.95
2022-08-28T08:19:02.438Z,100250.53
2022-08-28T08:20:02.525Z,100255.48
2022-08-28T08:21:04.574Z,100249.34
2022-08-28T08:22:02.739Z,100250.19
2022-08-28T08:23:03.045Z,100253.55
2022-08-28T08:24:03.460Z,100251.07
2022-08-28T08:25:03.890Z,100252.56
2022-08-28T08:26:04.821Z,100251.81
2022-08-28T08:27:04.116Z,100251.12
2022-08-28T08:28:04.417Z,100248.44
2022-08-28T08:29:04.220Z,100242.28
2022-08-28T08:30:04.935Z,100243.72
2022-08-28T08:31:10.062Z,100246.95
2022-08-28T08:32:08.545Z,100242.16
2022-08-28T08:33:07.318Z,100244.17
2022-08-28T08:34:07.431Z,100242.88
2022-08-28T08:35:08.242Z,100242.97
2022-08-28T08:36:08.877Z,100242.42
2022-08-28T08:37:08.258Z,100242.83
2022-08-28T08:38:08.573Z,100245.78
2022-08-28T08:39:09.737Z,100244.51
2022-08-28T08:40:11.800Z,100242.98
2022-08-28T08:41:19.963Z,100246.58
2022-08-28T08:42:22.117Z,100242.21
2022-08-28T08:43:15.567Z,100247.36
2022-08-28T08:45:18.752Z,100244.99
2022-08-28T08:46:15.878Z,100245.94
2022-08-28T08:49:22.550Z,100244.59
2022-08-28T08:50:22.584Z,100242.62
2022-08-28T08:53:27.614Z,100242.64
2022-08-28T08:54:24.650Z,100242.47
2022-08-28T08:55:29.578Z,100241.39
2022-08-28T08:56:34.740Z,100235.33
2022-08-28T08:57:27.749Z,100234.31
2022-08-28T08:58:33.078Z,100236.89
2022-08-28T08:59:30.938Z,100233.62
2022-08-28T09:00:37.300Z,100232.84
2022-08-28T09:01:39.312Z,100233.25
2022-08-28T09:02:43.561Z,100233.52
2022-08-28T09:04:56.364Z,100231.39
2022-08-28T09:06:52.290Z,100232.05
2022-08-28T09:08:56.797Z,100231.83
2022-08-28T09:09:55.163Z,100231.86
2022-08-28T09:11:58.039Z,100231.97
2022-08-28T09:15:01.250Z,100233.73
2022-08-28T09:16:04.662Z,100230.47
2022-08-28T09:17:02.488Z,100228.2
2022-08-28T09:19:07.410Z,100231.8
2022-08-28T09:20:06.807Z,100233.96
2022-08-28T09:21:06.408Z,100227.3
2022-08-28T09:22:06.407Z,100223.06
2022-08-28T09:23:12.718Z,100229.73
2022-08-28T09:25:12.988Z,100224.19
2022-08-28T09:28:27.142Z,100222.94
2022-08-28T09:29:23.549Z,100223.45
2022-08-28T09:30:30.218Z,100220.41
2022-08-28T09:31:30.665Z,100221.56
2022-08-28T09:32:24.609Z,100221.84
2022-08-28T09:33:29.727Z,100224.25
2022-08-28T09:34:28.448Z,100221.7
2022-08-28T09:35:29.138Z,100220.59
2022-08-28T09:36:34.351Z,100219.2
2022-08-28T09:37:31.301Z,100223.95
2022-08-28T09:38:31.707Z,100215.47
2022-08-28T09:39:32.937Z,100213.45
2022-08-28T09:40:32.504Z,100214.72
2022-08-28T09:41:32.739Z,100216.06
2022-08-28T09:42:32.544Z,100215.71
2022-08-28T09:43:33.373Z,100218.05
2022-08-28T09:44:33.069Z,100216.7
2022-08-28T09:45:33.382Z,100215.66
2022-08-28T09:46:34.957Z,100217.2
2022-08-28T09:48:38.215Z,100216.05
2022-08-28T09:49:37.308Z,100213.7
2022-08-28T09:50:40.388Z,100211.55
2022-08-28T09:51:38.037Z,100210.69
2022-08-28T09:52:38.041Z,100204.92
2022-08-28T09:53:43.277Z,100207.78
2022-08-28T09:54:42.042Z,100207.77
2022-08-28T09:55:51.367Z,100210.19
2022-08-28T09:56:45.549Z,100205.72
2022-08-28T09:57:45.858Z,100208.7
2022-08-28T09:59:47.809Z,100205.16
2022-08-28T10:00:50.898Z,100203.25
2022-08-28T10:02:59.303Z,100201.94
2022-08-28T10:05:05.873Z,100199.37
2022-08-28T10:12:14.310Z,100192.14
2022-08-28T10:17:34.019Z,100190.87
2022-08-28T10:29:58.001Z,100180.41
2022-08-28T10:33:07.280Z,100175.07
2022-08-28T10:34:12.212Z,100178.99
2022-08-28T10:35:14.050Z,100174.42
2022-08-28T10:36:28.774Z,100175.4
2022-08-28T10:38:17.244Z,100178.28
2022-08-28T10:41:31.508Z,100171.71
2022-08-28T10:44:38.793Z,100173.59
2022-08-28T10:45:36.052Z,100171.92
2022-08-28T10:46:45.648Z,100173.08
2022-08-28T10:47:38.051Z,100169.94
2022-08-28T10:50:47.118Z,100169.41
2022-08-28T10:51:49.759Z,100170.78
2022-08-28T10:52:53.693Z,100166.41
2022-08-28T10:53:56.571Z,100166
2022-08-28T10:56:03.047Z,100168.7
2022-08-28T10:58:21.521Z,100166.97
2022-08-28T10:59:10.014Z,100165.11
2022-08-28T11:02:13.086Z,100165.14
2022-08-28T11:03:32.871Z,100163.8
2022-08-28T11:04:24.847Z,100161.37
2022-08-28T11:07:26.247Z,100160.83
2022-08-28T11:09:30.671Z,100157.22
2022-08-28T11:12:36.318Z,100153.02
2022-08-28T11:16:41.402Z,100152.08
2022-08-28T11:17:41.484Z,100150.86
2022-08-28T11:21:50.408Z,100147.55
2022-08-28T11:29:05.905Z,100137.95
2022-08-28T11:37:38.118Z,100128.58
2022-08-28T11:39:39.559Z,100129.48
2022-08-28T11:42:47.369Z,100128.16
2022-08-28T11:43:48.700Z,100128.77
2022-08-28T11:44:48.088Z,100127.48
2022-08-28T11:46:53.130Z,100124.93
2022-08-28T11:47:53.131Z,100122.2
2022-08-28T11:48:57.030Z,100123.57
2022-08-28T11:49:53.969Z,100121.67
2022-08-28T11:57:19.604Z,100116.09
2022-08-28T11:58:25.241Z,100118.81
2022-08-28T12:01:33.152Z,100113.94
2022-08-28T12:04:42.769Z,100112.39
2022-08-28T12:05:47.102Z,100105.25
2022-08-28T12:07:47.835Z,100111.73
2022-08-28T12:09:49.491Z,100110.7
2022-08-28T12:11:50.522Z,100104.61
2022-08-28T12:12:54.330Z,100105.7
2022-08-28T12:13:51.879Z,100105.19
2022-08-28T12:14:59.142Z,100104.44
2022-08-28T12:18:05.205Z,100103.33
2022-08-28T12:19:04.290Z,100098.41
2022-08-28T12:22:13.021Z,100096.41
2022-08-28T12:25:24.911Z,100093.9
2022-08-28T12:27:26.050Z,100088.73
2022-08-28T12:28:30.462Z,100091.92
2022-08-28T12:30:28.971Z,100086.2
2022-08-28T12:35:37.672Z,100083.88
2022-08-28T12:36:37.685Z,100084.81
2022-08-28T12:39:46.308Z,100081.42
2022-08-28T12:40:48.260Z,100083.23
2022-08-28T12:41:46.518Z,100081.6
2022-08-28T12:42:54.470Z,100076.62
2022-08-28T12:44:52.479Z,100080.34
2022-08-28T12:45:54.098Z,100078.55
2022-08-28T12:46:53.116Z,100083.07
2022-08-28T12:47:54.860Z,100076.04
2022-08-28T12:48:57.524Z,100079.05
2022-08-28T12:49:54.378Z,100075.2
2022-08-28T12:53:06.815Z,100074.02
2022-08-28T12:55:05.753Z,100068.78
2022-08-28T12:56:07.509Z,100067.38
2022-08-28T12:58:14.190Z,100063.34
2022-08-28T13:00:16.237Z,100060.71
2022-08-28T13:03:18.816Z,100056.7
2022-08-28T13:04:31.118Z,100058.88
2022-08-28T13:06:31.239Z,100061.36
2022-08-28T13:07:32.444Z,100063.88
2022-08-28T13:08:29.596Z,100060.28
2022-08-28T13:09:29.728Z,100060.96
2022-08-28T13:10:35.867Z,100062.02
2022-08-28T13:12:56.337Z,100059.6
2022-08-28T13:13:44.785Z,100059.72
2022-08-28T13:15:46.027Z,100056.34
2022-08-28T13:16:44.584Z,100056.61
2022-08-28T13:20:01.000Z,100054.98
2022-08-28T13:20:52.000Z,100054.27
2022-08-28T13:22:52.423Z,100050.24
2022-08-28T13:23:54.372Z,100047.52
2022-08-28T13:26:02.798Z,100046.66
2022-08-28T13:28:13.648Z,100045.62
2022-08-28T13:32:19.315Z,100045.48
2022-08-28T13:33:20.668Z,100043.49
2022-08-28T13:34:23.836Z,100045.38
2022-08-28T13:36:23.040Z,100039.97
2022-08-28T13:38:28.390Z,100033.48
2022-08-28T13:39:30.015Z,100034.52
2022-08-28T13:40:56.410Z,100033.06
2022-08-28T13:41:30.110Z,100032.22
2022-08-28T13:42:30.138Z,100028.9
2022-08-28T13:44:34.662Z,100027.39
2022-08-28T13:45:42.490Z,100028.9
2022-08-28T13:46:34.834Z,100027.45
2022-08-28T13:47:34.870Z,100027.57
2022-08-28T13:48:35.698Z,100027.19
2022-08-28T13:49:35.706Z,100023.7
2022-08-28T13:50:36.532Z,100021.38
2022-08-28T13:51:37.646Z,100022.61
2022-08-28T13:52:36.449Z,100020.92
2022-08-28T13:53:36.964Z,100018.89